sensor_id;sensor_type;location;lat;lon;timestamp;temperature;humidity
12233;DHT22;6179;51.748;8.728;2023-07-31T00:00:15;16.50;98.30
12233;DHT22;6179;51.748;8.728;2023-07-31T00:06:16;16.30;98.30
12233;DHT22;6179;51.748;8.728;2023-07-31T00:12:16;16.20;98.30
12233;DHT22;6179;51.748;8.728;2023-07-31T00:18:17;16.60;98.30
12233;DHT22;6179;51.748;8.728;2023-07-31T00:24:17;16.60;98.30
12233;DHT22;6179;51.748;8.728;2023-07-31T00:30:21;16.50;98.30
12233;DHT22;6179;51.748;8.728;2023-07-31T00:36:22;16.30;98.30
12233;DHT22;6179;51.748;8.728;2023-07-31T00:42:24;16.30;98.30
12233;DHT22;6179;51.748;8.728;2023-07-31T00:48:25;16.60;98.30
12233;DHT22;6179;51.748;8.728;2023-07-31T00:54:26;16.70;98.30
12233;DHT22;6179;51.748;8.728;2023-07-31T01:00:27;16.50;98.30
12233;DHT22;6179;51.748;8.728;2023-07-31T01:06:39;16.40;98.30
12233;DHT22;6179;51.748;8.728;2023-07-31T01:12:42;16.30;98.30
12233;DHT22;6179;51.748;8.728;2023-07-31T01:18:43;16.50;98.30
12233;DHT22;6179;51.748;8.728;2023-07-31T01:31:21;16.60;98.30
12233;DHT22;6179;51.748;8.728;2023-07-31T01:37:28;16.60;98.30
12233;DHT22;6179;51.748;8.728;2023-07-31T01:43:29;16.90;98.30
12233;DHT22;6179;51.748;8.728;2023-07-31T01:49:30;17.00;98.30
12233;DHT22;6179;51.748;8.728;2023-07-31T01:55:30;16.80;98.30
12233;DHT22;6179;51.748;8.728;2023-07-31T02:01:31;16.80;98.30
12233;DHT22;6179;51.748;8.728;2023-07-31T02:07:31;16.50;98.30
12233;DHT22;6179;51.748;8.728;2023-07-31T02:13:32;16.10;98.30
12233;DHT22;6179;51.748;8.728;2023-07-31T02:19:32;16.10;98.30
12233;DHT22;6179;51.748;8.728;2023-07-31T02:25:33;16.20;98.30
12233;DHT22;6179;51.748;8.728;2023-07-31T02:31:34;16.40;98.30
12233;DHT22;6179;51.748;8.728;2023-07-31T02:37:34;16.60;98.30
12233;DHT22;6179;51.748;8.728;2023-07-31T02:43:35;16.40;98.30
12233;DHT22;6179;51.748;8.728;2023-07-31T02:49:35;16.40;98.30
12233;DHT22;6179;51.748;8.728;2023-07-31T02:55:36;16.50;98.30
12233;DHT22;6179;51.748;8.728;2023-07-31T03:01:36;16.40;98.30
12233;DHT22;6179;51.748;8.728;2023-07-31T03:07:37;16.30;98.30
12233;DHT22;6179;51.748;8.728;2023-07-31T03:13:38;16.70;98.30
12233;DHT22;6179;51.748;8.728;2023-07-31T03:19:38;16.70;98.30
12233;DHT22;6179;51.748;8.728;2023-07-31T03:25:41;16.60;98.30
12233;DHT22;6179;51.748;8.728;2023-07-31T03:31:42;16.40;98.30
12233;DHT22;6179;51.748;8.728;2023-07-31T03:37:42;16.50;98.30
12233;DHT22;6179;51.748;8.728;2023-07-31T03:43:43;16.60;98.30
12233;DHT22;6179;51.748;8.728;2023-07-31T03:49:43;16.40;98.30
12233;DHT22;6179;51.748;8.728;2023-07-31T03:55:44;16.40;98.30
12233;DHT22;6179;51.748;8.728;2023-07-31T04:01:44;16.50;98.30
12233;DHT22;6179;51.748;8.728;2023-07-31T04:07:45;16.60;98.30
12233;DHT22;6179;51.748;8.728;2023-07-31T04:13:46;16.60;98.30
12233;DHT22;6179;51.748;8.728;2023-07-31T04:19:49;16.40;98.30
12233;DHT22;6179;51.748;8.728;2023-07-31T04:25:49;16.70;98.30
12233;DHT22;6179;51.748;8.728;2023-07-31T04:31:50;16.40;98.30
12233;DHT22;6179;51.748;8.728;2023-07-31T04:37:51;16.60;98.30
12233;DHT22;6179;51.748;8.728;2023-07-31T04:43:51;16.30;98.30
12233;DHT22;6179;51.748;8.728;2023-07-31T04:49:52;16.50;98.30
12233;DHT22;6179;51.748;8.728;2023-07-31T04:55:52;16.80;98.30
12233;DHT22;6179;51.748;8.728;2023-07-31T05:01:53;16.70;98.30
12233;DHT22;6179;51.748;8.728;2023-07-31T05:07:54;16.70;98.30
12233;DHT22;6179;51.748;8.728;2023-07-31T05:13:54;16.80;98.30
12233;DHT22;6179;51.748;8.728;2023-07-31T05:19:55;16.90;98.30
12233;DHT22;6179;51.748;8.728;2023-07-31T05:26:01;16.90;98.30
12233;DHT22;6179;51.748;8.728;2023-07-31T05:32:02;17.00;98.30
12233;DHT22;6179;51.748;8.728;2023-07-31T05:38:03;17.20;98.30
12233;DHT22;6179;51.748;8.728;2023-07-31T05:44:04;16.80;98.30
12233;DHT22;6179;51.748;8.728;2023-07-31T05:50:04;17.20;98.30
12233;DHT22;6179;51.748;8.728;2023-07-31T05:56:05;17.20;98.30
12233;DHT22;6179;51.748;8.728;2023-07-31T06:02:06;17.10;98.30
12233;DHT22;6179;51.748;8.728;2023-07-31T06:08:06;17.50;98.30
12233;DHT22;6179;51.748;8.728;2023-07-31T06:14:07;17.40;98.30
12233;DHT22;6179;51.748;8.728;2023-07-31T06:20:08;17.60;98.30
12233;DHT22;6179;51.748;8.728;2023-07-31T06:26:08;17.50;98.30
12233;DHT22;6179;51.748;8.728;2023-07-31T06:32:09;17.50;98.30
12233;DHT22;6179;51.748;8.728;2023-07-31T06:38:10;17.50;98.30
12233;DHT22;6179;51.748;8.728;2023-07-31T06:44:11;17.60;98.30
12233;DHT22;6179;51.748;8.728;2023-07-31T06:50:11;17.80;98.30
12233;DHT22;6179;51.748;8.728;2023-07-31T06:56:12;17.90;98.30
12233;DHT22;6179;51.748;8.728;2023-07-31T07:02:12;17.80;98.30
12233;DHT22;6179;51.748;8.728;2023-07-31T07:08:13;17.70;98.30
12233;DHT22;6179;51.748;8.728;2023-07-31T07:14:14;17.60;98.30
12233;DHT22;6179;51.748;8.728;2023-07-31T07:20:14;17.70;98.30
12233;DHT22;6179;51.748;8.728;2023-07-31T07:26:15;17.50;98.30
12233;DHT22;6179;51.748;8.728;2023-07-31T07:32:15;17.60;98.30
12233;DHT22;6179;51.748;8.728;2023-07-31T07:38:17;17.40;98.30
12233;DHT22;6179;51.748;8.728;2023-07-31T07:44:19;17.30;98.30
12233;DHT22;6179;51.748;8.728;2023-07-31T07:50:20;17.20;98.30
12233;DHT22;6179;51.748;8.728;2023-07-31T07:56:20;17.60;98.30
12233;DHT22;6179;51.748;8.728;2023-07-31T08:02:22;17.60;98.30
12233;DHT22;6179;51.748;8.728;2023-07-31T08:08:22;17.60;98.30
12233;DHT22;6179;51.748;8.728;2023-07-31T08:14:23;17.40;98.30
12233;DHT22;6179;51.748;8.728;2023-07-31T08:20:23;17.50;98.30
12233;DHT22;6179;51.748;8.728;2023-07-31T08:26:24;17.40;98.30
12233;DHT22;6179;51.748;8.728;2023-07-31T08:32:25;17.60;98.30
12233;DHT22;6179;51.748;8.728;2023-07-31T08:38:26;17.80;98.30
12233;DHT22;6179;51.748;8.728;2023-07-31T08:44:27;17.90;98.30
12233;DHT22;6179;51.748;8.728;2023-07-31T08:50:27;18.00;98.30
12233;DHT22;6179;51.748;8.728;2023-07-31T08:56:28;18.20;98.30
12233;DHT22;6179;51.748;8.728;2023-07-31T09:02:46;18.10;98.30
12233;DHT22;6179;51.748;8.728;2023-07-31T09:08:46;17.80;98.30
12233;DHT22;6179;51.748;8.728;2023-07-31T09:14:47;17.90;98.30
12233;DHT22;6179;51.748;8.728;2023-07-31T09:21:06;18.10;98.30
12233;DHT22;6179;51.748;8.728;2023-07-31T09:27:08;17.80;98.30
12233;DHT22;6179;51.748;8.728;2023-07-31T09:33:09;17.90;98.30
12233;DHT22;6179;51.748;8.728;2023-07-31T09:39:10;18.20;98.30
12233;DHT22;6179;51.748;8.728;2023-07-31T09:45:12;18.40;98.30
12233;DHT22;6179;51.748;8.728;2023-07-31T09:51:13;18.30;98.30
12233;DHT22;6179;51.748;8.728;2023-07-31T09:57:14;18.50;98.30
12233;DHT22;6179;51.748;8.728;2023-07-31T10:03:17;18.50;98.30
12233;DHT22;6179;51.748;8.728;2023-07-31T10:09:18;18.80;98.30
12233;DHT22;6179;51.748;8.728;2023-07-31T10:15:20;18.60;98.30
12233;DHT22;6179;51.748;8.728;2023-07-31T10:21:21;18.80;98.30
12233;DHT22;6179;51.748;8.728;2023-07-31T10:27:21;19.20;98.30
12233;DHT22;6179;51.748;8.728;2023-07-31T10:33:22;19.70;98.30
12233;DHT22;6179;51.748;8.728;2023-07-31T10:39:36;19.30;98.30
12233;DHT22;6179;51.748;8.728;2023-07-31T10:45:42;19.50;98.30
12233;DHT22;6179;51.748;8.728;2023-07-31T10:51:42;19.30;98.30
12233;DHT22;6179;51.748;8.728;2023-07-31T10:57:47;18.80;98.30
12233;DHT22;6179;51.748;8.728;2023-07-31T11:03:49;19.00;98.30
12233;DHT22;6179;51.748;8.728;2023-07-31T11:09:53;19.10;98.30
12233;DHT22;6179;51.748;8.728;2023-07-31T11:15:54;18.60;98.30
12233;DHT22;6179;51.748;8.728;2023-07-31T11:21:55;18.60;98.30
12233;DHT22;6179;51.748;8.728;2023-07-31T11:27:56;18.40;98.30
12233;DHT22;6179;51.748;8.728;2023-07-31T11:34:06;18.60;98.30
12233;DHT22;6179;51.748;8.728;2023-07-31T11:40:07;18.90;98.30
12233;DHT22;6179;51.748;8.728;2023-07-31T11:46:09;18.80;98.30
12233;DHT22;6179;51.748;8.728;2023-07-31T11:52:11;18.70;98.30
12233;DHT22;6179;51.748;8.728;2023-07-31T11:58:12;18.70;98.30
12233;DHT22;6179;51.748;8.728;2023-07-31T12:04:14;19.00;98.30
12233;DHT22;6179;51.748;8.728;2023-07-31T12:16:26;18.50;98.30
12233;DHT22;6179;51.748;8.728;2023-07-31T12:22:28;18.40;98.30
12233;DHT22;6179;51.748;8.728;2023-07-31T12:28:28;18.80;98.30
12233;DHT22;6179;51.748;8.728;2023-07-31T12:34:29;19.20;98.30
12233;DHT22;6179;51.748;8.728;2023-07-31T12:40:30;19.50;98.30
12233;DHT22;6179;51.748;8.728;2023-07-31T12:46:30;19.20;98.30
12233;DHT22;6179;51.748;8.728;2023-07-31T12:52:31;19.30;98.30
12233;DHT22;6179;51.748;8.728;2023-07-31T12:58:32;19.20;98.30
12233;DHT22;6179;51.748;8.728;2023-07-31T13:04:32;19.30;98.30
12233;DHT22;6179;51.748;8.728;2023-07-31T13:10:33;19.10;98.30
12233;DHT22;6179;51.748;8.728;2023-07-31T13:16:33;19.20;98.30
12233;DHT22;6179;51.748;8.728;2023-07-31T13:22:34;19.10;98.30
12233;DHT22;6179;51.748;8.728;2023-07-31T13:28:35;19.20;98.30
12233;DHT22;6179;51.748;8.728;2023-07-31T13:34:35;19.50;98.30
12233;DHT22;6179;51.748;8.728;2023-07-31T13:40:36;19.80;98.30
12233;DHT22;6179;51.748;8.728;2023-07-31T13:46:36;19.40;98.30
12233;DHT22;6179;51.748;8.728;2023-07-31T13:52:37;19.70;98.30
12233;DHT22;6179;51.748;8.728;2023-07-31T13:58:38;19.70;98.30
12233;DHT22;6179;51.748;8.728;2023-07-31T14:04:38;20.10;98.30
12233;DHT22;6179;51.748;8.728;2023-07-31T14:10:39;19.90;98.30
12233;DHT22;6179;51.748;8.728;2023-07-31T14:16:39;19.80;98.30
12233;DHT22;6179;51.748;8.728;2023-07-31T14:22:40;19.90;98.30
12233;DHT22;6179;51.748;8.728;2023-07-31T14:28:41;19.50;98.30
12233;DHT22;6179;51.748;8.728;2023-07-31T14:34:41;19.20;98.30
12233;DHT22;6179;51.748;8.728;2023-07-31T14:40:42;19.30;98.30
12233;DHT22;6179;51.748;8.728;2023-07-31T14:46:43;19.20;98.30
12233;DHT22;6179;51.748;8.728;2023-07-31T14:52:43;18.50;98.30
12233;DHT22;6179;51.748;8.728;2023-07-31T14:58:44;18.50;98.30
12233;DHT22;6179;51.748;8.728;2023-07-31T15:04:45;19.00;98.30
12233;DHT22;6179;51.748;8.728;2023-07-31T15:10:45;19.10;98.30
12233;DHT22;6179;51.748;8.728;2023-07-31T15:16:46;19.20;98.30
12233;DHT22;6179;51.748;8.728;2023-07-31T15:22:47;19.50;98.30
12233;DHT22;6179;51.748;8.728;2023-07-31T15:28:57;19.50;98.30
12233;DHT22;6179;51.748;8.728;2023-07-31T15:35:00;19.30;98.30
12233;DHT22;6179;51.748;8.728;2023-07-31T15:41:01;19.70;98.30
12233;DHT22;6179;51.748;8.728;2023-07-31T15:47:01;19.80;98.30
12233;DHT22;6179;51.748;8.728;2023-07-31T15:53:02;20.00;98.30
12233;DHT22;6179;51.748;8.728;2023-07-31T15:59:03;20.20;98.30
12233;DHT22;6179;51.748;8.728;2023-07-31T16:05:03;20.20;98.30
12233;DHT22;6179;51.748;8.728;2023-07-31T16:11:04;20.00;98.30
12233;DHT22;6179;51.748;8.728;2023-07-31T16:17:05;20.10;98.30
12233;DHT22;6179;51.748;8.728;2023-07-31T16:23:06;19.90;98.30
12233;DHT22;6179;51.748;8.728;2023-07-31T16:29:07;20.10;98.30
12233;DHT22;6179;51.748;8.728;2023-07-31T16:35:07;20.10;98.30
12233;DHT22;6179;51.748;8.728;2023-07-31T16:41:08;19.70;98.30
12233;DHT22;6179;51.748;8.728;2023-07-31T16:47:10;19.90;98.30
12233;DHT22;6179;51.748;8.728;2023-07-31T16:53:11;20.20;98.30
12233;DHT22;6179;51.748;8.728;2023-07-31T16:59:11;20.30;98.30
12233;DHT22;6179;51.748;8.728;2023-07-31T17:05:12;20.20;98.30
12233;DHT22;6179;51.748;8.728;2023-07-31T17:11:12;20.10;98.30
12233;DHT22;6179;51.748;8.728;2023-07-31T17:17:13;20.20;98.30
12233;DHT22;6179;51.748;8.728;2023-07-31T17:23:14;20.40;98.30
12233;DHT22;6179;51.748;8.728;2023-07-31T17:29:15;20.50;98.30
12233;DHT22;6179;51.748;8.728;2023-07-31T17:35:18;20.40;98.30
12233;DHT22;6179;51.748;8.728;2023-07-31T17:41:19;20.30;98.30
12233;DHT22;6179;51.748;8.728;2023-07-31T17:47:20;20.30;98.30
12233;DHT22;6179;51.748;8.728;2023-07-31T17:53:20;20.40;98.30
12233;DHT22;6179;51.748;8.728;2023-07-31T17:59:21;20.00;98.30
12233;DHT22;6179;51.748;8.728;2023-07-31T18:05:22;20.00;98.30
12233;DHT22;6179;51.748;8.728;2023-07-31T18:11:22;20.10;97.90
12233;DHT22;6179;51.748;8.728;2023-07-31T18:17:26;19.70;98.30
12233;DHT22;6179;51.748;8.728;2023-07-31T18:23:27;19.60;98.30
12233;DHT22;6179;51.748;8.728;2023-07-31T18:29:28;19.50;98.30
12233;DHT22;6179;51.748;8.728;2023-07-31T18:35:28;19.50;98.30
12233;DHT22;6179;51.748;8.728;2023-07-31T18:41:29;19.20;98.30
12233;DHT22;6179;51.748;8.728;2023-07-31T18:47:30;18.70;98.30
12233;DHT22;6179;51.748;8.728;2023-07-31T18:53:30;18.50;98.30
12233;DHT22;6179;51.748;8.728;2023-07-31T18:59:31;19.00;98.30
12233;DHT22;6179;51.748;8.728;2023-07-31T19:05:31;19.00;98.30
12233;DHT22;6179;51.748;8.728;2023-07-31T19:11:32;19.00;98.30
12233;DHT22;6179;51.748;8.728;2023-07-31T19:17:32;19.40;98.30
12233;DHT22;6179;51.748;8.728;2023-07-31T19:23:33;19.20;98.30
12233;DHT22;6179;51.748;8.728;2023-07-31T19:29:34;19.00;98.30
12233;DHT22;6179;51.748;8.728;2023-07-31T19:35:34;19.10;98.30
12233;DHT22;6179;51.748;8.728;2023-07-31T19:41:35;19.10;98.30
12233;DHT22;6179;51.748;8.728;2023-07-31T19:47:39;18.70;98.30
12233;DHT22;6179;51.748;8.728;2023-07-31T19:53:39;18.40;98.30
12233;DHT22;6179;51.748;8.728;2023-07-31T19:59:40;18.20;98.30
12233;DHT22;6179;51.748;8.728;2023-07-31T20:05:41;18.20;98.30
12233;DHT22;6179;51.748;8.728;2023-07-31T20:11:41;18.10;98.30
12233;DHT22;6179;51.748;8.728;2023-07-31T20:17:42;18.10;98.30
12233;DHT22;6179;51.748;8.728;2023-07-31T20:23:42;18.10;98.30
12233;DHT22;6179;51.748;8.728;2023-07-31T20:29:45;17.90;98.30
12233;DHT22;6179;51.748;8.728;2023-07-31T20:35:45;18.00;98.30
12233;DHT22;6179;51.748;8.728;2023-07-31T20:41:46;17.80;98.30
12233;DHT22;6179;51.748;8.728;2023-07-31T20:47:50;17.90;98.30
12233;DHT22;6179;51.748;8.728;2023-07-31T20:53:50;17.70;98.30
12233;DHT22;6179;51.748;8.728;2023-07-31T20:59:52;17.80;98.30
12233;DHT22;6179;51.748;8.728;2023-07-31T21:05:53;17.90;98.30
12233;DHT22;6179;51.748;8.728;2023-07-31T21:11:54;17.80;98.30
12233;DHT22;6179;51.748;8.728;2023-07-31T21:17:55;17.70;98.30
12233;DHT22;6179;51.748;8.728;2023-07-31T21:23:57;17.30;98.30
12233;DHT22;6179;51.748;8.728;2023-07-31T21:29:57;17.60;98.30
12233;DHT22;6179;51.748;8.728;2023-07-31T21:35:59;17.70;98.30
12233;DHT22;6179;51.748;8.728;2023-07-31T21:42:00;17.70;98.30
12233;DHT22;6179;51.748;8.728;2023-07-31T21:48:00;17.50;98.30
12233;DHT22;6179;51.748;8.728;2023-07-31T21:54:01;17.60;98.30
12233;DHT22;6179;51.748;8.728;2023-07-31T22:00:05;17.60;98.30
12233;DHT22;6179;51.748;8.728;2023-07-31T22:06:06;17.40;98.30
12233;DHT22;6179;51.748;8.728;2023-07-31T22:12:07;17.70;98.30
12233;DHT22;6179;51.748;8.728;2023-07-31T22:18:07;17.70;98.30
12233;DHT22;6179;51.748;8.728;2023-07-31T22:24:08;17.40;98.30
12233;DHT22;6179;51.748;8.728;2023-07-31T22:30:09;17.50;98.30
12233;DHT22;6179;51.748;8.728;2023-07-31T22:36:10;17.70;98.30
12233;DHT22;6179;51.748;8.728;2023-07-31T22:42:10;17.80;98.30
12233;DHT22;6179;51.748;8.728;2023-07-31T22:48:11;17.80;98.30
12233;DHT22;6179;51.748;8.728;2023-07-31T22:54:12;17.60;98.30
12233;DHT22;6179;51.748;8.728;2023-07-31T23:00:13;17.50;98.30
12233;DHT22;6179;51.748;8.728;2023-07-31T23:06:14;17.50;98.30
12233;DHT22;6179;51.748;8.728;2023-07-31T23:12:15;17.50;98.30
12233;DHT22;6179;51.748;8.728;2023-07-31T23:18:15;17.60;98.30
12233;DHT22;6179;51.748;8.728;2023-07-31T23:24:16;17.60;98.30
12233;DHT22;6179;51.748;8.728;2023-07-31T23:30:17;17.90;98.30
12233;DHT22;6179;51.748;8.728;2023-07-31T23:36:17;18.20;98.30
12233;DHT22;6179;51.748;8.728;2023-07-31T23:42:18;18.30;98.30
12233;DHT22;6179;51.748;8.728;2023-07-31T23:48:18;18.30;98.30
12233;DHT22;6179;51.748;8.728;2023-07-31T23:54:19;18.40;98.30
